Terminal Aerodrome Forecast
Issued by NWS Binghamton, NY

Home | Current Version | Previous Version | Text Only | Print | Product List | Glossary On
Versions: 1 2 3 4 5 6 7 8 9 10 11 12 13 14 15 16 17
000
FTUS41 KBGM 220520
TAFAVP
TAF
KAVP 220520Z 2206/2306 VRB03KT 4SM -DZ BR OVC015
      TEMPO 2209/2213 2SM -DZ BR OVC008
     FM221500 14005KT P6SM OVC015
     FM230000 15008KT 4SM -DZ BR OVC012=

USA.gov is the U.S. government's official web portal to all federal, state and local government web resources and services.